Winona, KS (67764)

1:40 AM CDT on July 13, 2014 (GMT -0500)
KKSLEVAN2 Elev 3293 ft | 39.30 °N, 101.20 °W | Change Station

Current weather conditions updated 2 minutes ago

Clear
Clear
68.1 °F
Feels Like 68.1 °F
N
0.0
Wind Variable Wind from NW
Gusts 0.0 mph

Today is forecast to be nearly the same temperature as yesterday.

Today
High -- | Low -- °F
--% Chance of Precip.
Yesterday
High -- | Low -- °F
Precip. -- in
6:29 AM 9:11 PM
Full, 99% visible
Pressure 30.18 in
Visibility 10.0 miles
Clouds Clear
Dew Point 65 °F
Humidity 90%
Rainfall 0.00 in
Snow Depth Not available.
UV 0 out of 12
Pollen 5.00 out of 12
Air Quality Not available.
Flu Activity No Activity
METAR KCBK 130635Z AUTO 01004KT 10SM CLR 21/20 A3018 RMK AO2

More Conditions Fewer Conditions

Pressure 30.18 in
Visibility 10.0 miles
Clouds Clear
Dew Point 65 °F
Humidity 90%
Rainfall 0.00 in
Snow Depth Not available.
UV 0 out of 12
Pollen 5.00 out of 12
Air Quality Not available.
Flu Activity No Activity
METAR KCBK 130635Z AUTO 01004KT 10SM CLR 21/20 A3018 RMK AO2

More Conditions Fewer Conditions

10-Day Weather Forecast

Almanac

Astronomy

Jul. 13, 2014 Rise Set
Actual Time 6:29 AM CDT 9:11 PM CDT
Civil Twilight 5:58 AM CDT 9:42 PM CDT
Nautical Twilight 5:19 AM CDT 10:21 PM CDT
Astronomical Twilight 4:35 AM CDT 11:05 PM CDT
Moon 10:02 PM CDT 8:01 AM CDT
Length of Visible Light 15h 43m
Length of Day
14h 41m
Tomorrow will be 1m 14s shorter.
Full, 99% of the Moon is Illuminated
Today
Full
Jul 18
Last Quarter
Jul 26
New
Aug 3
First Quarter
Aug 10
Full

Today's Extremes

State Highs State Lows

Community

WunderPhotos

Upload Photos

1,733,116 photos uploaded!

Nearby

Snow Depth

Station Depth Elevation
No new snow has been reported.

Earthquake Activity

City Distance Mag. Time & Date
No recent earthquake activity has been reported nearby.
Minimum magnitude displayed is 2.5.

Coastal Water Temperatures

Place Temperature
No Stations Reporting

Nearby Weather Stations

Station Location Temp. Heat Index Dew Point Humidity Wind Precip. Elev Updated Type
MesoWest MONUMT , Monument, KS 68 °F - - - North  at  - 0.00 in / hr 3191 ft 9:50 PM CDT MADIS
Levant, KS 68.1 °F - 65 °F 90% NW  at  0.0 mph 0.00 in / hr 3293 ft 1:38 AM CDT Rapid Fire
Rattlesnake Ridge, Wallace, KS 72.1 °F 72 °F 67 °F 83% North  at  0.0 mph 0.00 in / hr 3311 ft 12:40 AM MDT Rapid Fire
145 E Cherry - K0FJ, Colby, KS 70.8 °F 70 °F 65 °F 83% NE  at  1.0 mph 0.00 in / hr 3150 ft 1:39 AM CDT Normal
630 Woofter Ave, Colby, KS 69.6 °F - 65 °F 84% NNE  at  0.0 mph 0.00 in / hr 3186 ft 1:40 AM CDT Rapid Fire
Jason, Colby, KS 66.4 °F - 65 °F 96% NE  at  1.0 mph 0.00 in / hr 3192 ft 1:40 AM CDT Rapid Fire

Show More Stations Show Fewer Stations